createdAt,value
2024-03-06T00:00:57.426Z,607.00
2024-03-06T00:01:57.558Z,605.00
2024-03-06T00:02:57.417Z,607.00
2024-03-06T00:03:57.418Z,605.00
2024-03-06T00:04:57.582Z,603.00
2024-03-06T00:58:14.923Z,607.00
2024-03-06T00:58:57.752Z,622.00
2024-03-06T00:59:57.696Z,721.00
2024-03-06T01:00:57.727Z,925.00
2024-03-06T01:01:57.806Z,1133.00
2024-03-06T01:02:57.743Z,1329.00
2024-03-06T01:03:57.704Z,1285.00
2024-03-06T01:04:57.725Z,1145.00
2024-03-06T01:05:57.716Z,1047.00
2024-03-06T01:06:57.710Z,960.00
2024-03-06T01:07:57.772Z,905.00
2024-03-06T01:08:57.714Z,846.00
2024-03-06T01:09:57.718Z,781.00
2024-03-06T01:10:57.780Z,738.00
2024-03-06T01:11:57.715Z,701.00
2024-03-06T01:12:57.712Z,674.00
2024-03-06T01:13:57.796Z,659.00
2024-03-06T01:14:57.729Z,649.00
2024-03-06T01:15:57.764Z,640.00
2024-03-06T01:16:57.754Z,634.00
2024-03-06T01:17:57.759Z,625.00
2024-03-06T01:18:57.709Z,620.00
2024-03-06T01:19:57.740Z,613.00
2024-03-06T01:20:57.717Z,610.00
2024-03-06T01:21:57.766Z,605.00
2024-03-06T01:22:57.736Z,602.00
2024-03-06T01:23:57.717Z,598.00
2024-03-06T01:24:57.737Z,600.00
2024-03-06T01:25:57.753Z,599.00
2024-03-06T01:26:57.727Z,601.00
2024-03-06T01:27:57.765Z,601.00
2024-03-06T01:28:57.751Z,601.00
2024-03-06T01:29:57.798Z,605.00
2024-03-06T01:30:57.726Z,600.00
2024-03-06T01:31:57.813Z,602.00
2024-03-06T01:32:57.819Z,604.00
2024-03-06T01:33:57.763Z,603.00
2024-03-06T01:34:57.799Z,604.00
2024-03-06T01:35:57.750Z,604.00
2024-03-06T01:36:57.739Z,603.00
2024-03-06T01:37:57.767Z,601.00
2024-03-06T01:38:57.753Z,606.00
2024-03-06T01:39:57.756Z,599.00
2024-03-06T01:40:57.818Z,602.00
2024-03-06T01:41:57.783Z,603.00
2024-03-06T01:42:57.748Z,606.00
2024-03-06T01:43:57.816Z,602.00
2024-03-06T01:44:57.756Z,604.00
2024-03-06T01:45:57.777Z,606.00
2024-03-06T01:46:57.779Z,603.00
2024-03-06T01:47:57.795Z,604.00
2024-03-06T01:48:59.220Z,605.00
2024-03-06T01:49:57.839Z,605.00
2024-03-06T01:50:57.782Z,604.00
2024-03-06T01:51:57.760Z,604.00
2024-03-06T01:52:57.786Z,600.00
2024-03-06T01:53:57.767Z,601.00
2024-03-06T01:54:57.787Z,601.00
2024-03-06T01:55:57.789Z,604.00
2024-03-06T01:56:57.767Z,606.00
2024-03-06T01:57:57.766Z,602.00
2024-03-06T01:58:58.622Z,601.00
2024-03-06T01:59:57.772Z,602.00
2024-03-06T02:00:57.795Z,605.00
2024-03-06T02:01:57.857Z,605.00
2024-03-06T02:02:57.791Z,604.00
2024-03-06T02:03:57.772Z,603.00
2024-03-06T02:04:57.794Z,602.00
2024-03-06T02:05:57.778Z,603.00
2024-03-06T02:06:57.784Z,604.00
2024-03-06T02:07:57.856Z,604.00
2024-03-06T02:08:57.853Z,604.00
2024-03-06T02:09:57.777Z,603.00
2024-03-06T02:10:57.791Z,604.00
2024-03-06T02:11:57.784Z,607.00
2024-03-06T02:12:57.786Z,607.00
2024-03-06T02:13:57.832Z,606.00
2024-03-06T02:14:57.800Z,603.00
2024-03-06T02:15:57.817Z,600.00
2024-03-06T02:16:57.848Z,602.00
2024-03-06T02:17:57.842Z,607.00
2024-03-06T02:18:57.809Z,604.00
2024-03-06T02:19:57.867Z,604.00
2024-03-06T02:20:57.847Z,606.00
2024-03-06T02:21:57.860Z,605.00
2024-03-06T02:22:57.934Z,604.00
2024-03-06T02:23:57.913Z,602.00
2024-03-06T02:24:57.964Z,605.00
2024-03-06T02:25:58.004Z,605.00
2024-03-06T02:26:58.008Z,603.00
2024-03-06T02:27:58.089Z,607.00
2024-03-06T02:28:58.104Z,604.00
2024-03-06T02:29:58.111Z,600.00
2024-03-06T02:30:58.130Z,603.00
2024-03-06T02:31:58.208Z,607.00
2024-03-06T02:32:58.308Z,604.00
2024-03-06T02:33:58.238Z,601.00
2024-03-06T02:34:58.303Z,603.00
2024-03-06T02:35:58.273Z,600.00
2024-03-06T02:36:58.308Z,603.00
2024-03-06T02:37:58.343Z,600.00
2024-03-06T02:38:58.367Z,603.00
2024-03-06T02:39:58.928Z,606.00
2024-03-06T02:40:58.438Z,608.00
2024-03-06T02:41:58.473Z,608.00
2024-03-06T02:42:58.488Z,610.00
2024-03-06T02:43:58.598Z,608.00
2024-03-06T02:44:58.553Z,609.00
2024-03-06T02:45:58.592Z,608.00
2024-03-06T02:46:58.639Z,606.00
2024-03-06T02:47:58.676Z,609.00
2024-03-06T02:48:58.684Z,606.00
2024-03-06T02:49:58.765Z,609.00
2024-03-06T02:50:58.764Z,608.00
2024-03-06T02:51:58.797Z,605.00
2024-03-06T02:52:58.841Z,606.00
2024-03-06T02:53:58.840Z,604.00
2024-03-06T02:54:58.862Z,605.00
2024-03-06T02:55:58.973Z,604.00
2024-03-06T02:56:58.921Z,605.00
2024-03-06T02:57:58.952Z,606.00
2024-03-06T02:58:59.004Z,603.00
2024-03-06T02:59:59.022Z,607.00
2024-03-06T03:00:59.090Z,607.00
2024-03-06T03:01:59.090Z,602.00
2024-03-06T03:02:59.107Z,607.00
2024-03-06T03:03:59.130Z,603.00
2024-03-06T03:04:59.232Z,602.00
2024-03-06T03:05:59.211Z,604.00
2024-03-06T03:06:59.212Z,608.00
2024-03-06T03:07:59.328Z,604.00
2024-03-06T03:08:59.290Z,603.00
2024-03-06T03:09:59.328Z,604.00
2024-03-06T03:10:59.349Z,602.00
2024-03-06T03:11:59.344Z,607.00
2024-03-06T03:12:59.386Z,608.00
2024-03-06T03:13:59.431Z,603.00
2024-03-06T03:14:59.431Z,603.00
2024-03-06T03:15:59.465Z,606.00
2024-03-06T03:16:59.483Z,607.00
2024-03-06T03:17:59.524Z,600.00
2024-03-06T03:18:59.545Z,604.00
2024-03-06T03:19:59.593Z,604.00
2024-03-06T03:20:59.602Z,601.00
2024-03-06T03:21:59.652Z,602.00
2024-03-06T03:22:59.689Z,604.00
2024-03-06T03:23:59.706Z,600.00
2024-03-06T03:24:59.719Z,602.00
2024-03-06T03:25:59.770Z,604.00
2024-03-06T03:26:59.778Z,604.00
2024-03-06T03:27:59.809Z,603.00
2024-03-06T03:28:59.861Z,603.00
2024-03-06T03:29:59.868Z,605.00
2024-03-06T03:30:59.903Z,605.00
2024-03-06T03:31:59.956Z,606.00
2024-03-06T03:33:00.011Z,606.00
2024-03-06T03:34:00.037Z,605.00
2024-03-06T03:35:00.049Z,603.00
2024-03-06T03:36:00.075Z,601.00
2024-03-06T03:37:00.098Z,607.00
2024-03-06T03:38:00.209Z,606.00
2024-03-06T03:39:00.162Z,603.00
2024-03-06T03:40:00.240Z,604.00
2024-03-06T03:41:00.232Z,604.00
2024-03-06T03:42:00.269Z,603.00
2024-03-06T03:43:00.317Z,604.00
2024-03-06T03:44:00.380Z,604.00
2024-03-06T03:45:00.369Z,608.00
2024-03-06T03:46:00.426Z,605.00
2024-03-06T03:47:00.473Z,601.00
2024-03-06T03:48:00.571Z,603.00
2024-03-06T03:49:00.517Z,606.00
2024-03-06T03:50:09.418Z,605.00
2024-03-06T03:51:00.583Z,605.00
2024-03-06T03:52:00.586Z,606.00
2024-03-06T03:53:00.622Z,607.00
2024-03-06T03:54:00.590Z,608.00
2024-03-06T03:55:00.559Z,609.00
2024-03-06T03:56:00.605Z,606.00
2024-03-06T03:57:00.598Z,608.00
2024-03-06T03:58:00.571Z,604.00
2024-03-06T03:59:00.623Z,603.00
2024-03-06T04:00:00.649Z,602.00
2024-03-06T04:01:00.719Z,603.00
2024-03-06T04:02:00.702Z,605.00
2024-03-06T04:03:00.580Z,604.00
2024-03-06T04:04:00.581Z,601.00
2024-03-06T04:05:00.604Z,602.00
2024-03-06T04:06:00.581Z,603.00
2024-03-06T04:07:00.577Z,606.00
2024-03-06T04:08:00.662Z,607.00
2024-03-06T04:09:00.569Z,602.00
2024-03-06T04:10:00.597Z,601.00
2024-03-06T04:11:00.629Z,602.00
2024-03-06T04:12:00.631Z,601.00
2024-03-06T04:13:00.579Z,606.00
2024-03-06T04:14:00.593Z,604.00
2024-03-06T04:15:00.577Z,601.00
2024-03-06T04:16:00.585Z,602.00
2024-03-06T04:17:00.715Z,606.00
2024-03-06T04:18:00.609Z,600.00
2024-03-06T04:19:00.597Z,600.00
2024-03-06T04:20:00.771Z,608.00
2024-03-06T04:21:00.593Z,601.00
2024-03-06T04:22:00.587Z,605.00
2024-03-06T04:23:00.597Z,605.00
2024-03-06T04:24:00.575Z,602.00
2024-03-06T04:25:00.623Z,604.00
2024-03-06T04:26:00.684Z,601.00
2024-03-06T04:27:00.598Z,604.00
2024-03-06T04:28:00.588Z,604.00
2024-03-06T04:29:00.668Z,600.00
2024-03-06T04:30:00.635Z,603.00
2024-03-06T04:31:00.603Z,601.00
2024-03-06T04:32:00.610Z,604.00
2024-03-06T04:33:00.661Z,604.00
2024-03-06T04:34:00.661Z,608.00
2024-03-06T04:35:00.916Z,604.00
2024-03-06T04:36:00.741Z,606.00
2024-03-06T04:37:07.954Z,600.00
2024-03-06T04:38:08.965Z,600.00
2024-03-06T04:39:09.021Z,600.00
2024-03-06T04:40:09.112Z,600.00
2024-03-06T04:41:08.990Z,600.00
2024-03-06T04:42:08.942Z,600.00
2024-03-06T04:43:08.948Z,600.00
2024-03-06T04:44:08.961Z,603.00
2024-03-06T04:45:08.945Z,600.00
2024-03-06T04:46:08.956Z,601.00
2024-03-06T04:47:09.022Z,602.00
2024-03-06T04:48:08.985Z,606.00
2024-03-06T04:49:08.955Z,603.00
2024-03-06T04:50:09.014Z,603.00
2024-03-06T04:51:08.949Z,603.00
2024-03-06T04:52:08.965Z,604.00
2024-03-06T04:53:09.004Z,600.00
2024-03-06T04:54:09.008Z,603.00
2024-03-06T04:55:08.962Z,602.00
2024-03-06T04:56:09.031Z,605.00
2024-03-06T04:57:09.009Z,604.00
2024-03-06T04:58:08.960Z,605.00
2024-03-06T04:59:09.042Z,607.00
2024-03-06T05:00:08.966Z,606.00
2024-03-06T05:01:08.996Z,607.00
2024-03-06T05:02:08.999Z,605.00
2024-03-06T05:58:10.317Z,607.00
2024-03-06T05:59:09.303Z,607.00
2024-03-06T06:00:09.222Z,613.00
2024-03-06T06:01:09.283Z,618.00
2024-03-06T06:02:09.244Z,620.00
2024-03-06T06:03:09.283Z,626.00
2024-03-06T06:04:09.218Z,618.00
2024-03-06T06:05:22.217Z,620.00
2024-03-06T06:06:09.374Z,620.00
2024-03-06T06:07:09.232Z,621.00
2024-03-06T06:08:09.352Z,615.00
2024-03-06T06:09:09.221Z,618.00
2024-03-06T06:10:09.229Z,608.00
2024-03-06T06:11:09.333Z,610.00
2024-03-06T06:12:09.226Z,608.00
2024-03-06T06:13:09.320Z,604.00
2024-03-06T06:14:09.328Z,600.00
2024-03-06T06:15:09.253Z,602.00
2024-03-06T06:16:09.606Z,606.00
2024-03-06T06:17:09.249Z,609.00
2024-03-06T06:18:09.272Z,611.00
2024-03-06T06:19:09.233Z,618.00
2024-03-06T06:20:09.320Z,622.00
2024-03-06T06:21:09.246Z,630.00
2024-03-06T06:22:09.402Z,638.00
2024-03-06T06:23:09.319Z,642.00
2024-03-06T06:24:09.255Z,646.00
2024-03-06T06:25:09.250Z,654.00
2024-03-06T06:26:09.350Z,661.00
2024-03-06T06:27:09.252Z,672.00
2024-03-06T06:28:09.249Z,665.00
2024-03-06T06:29:09.316Z,690.00
2024-03-06T06:30:09.302Z,702.00
2024-03-06T06:31:09.613Z,713.00
2024-03-06T06:32:10.457Z,714.00
2024-03-06T06:33:09.308Z,720.00
2024-03-06T06:34:09.259Z,725.00
2024-03-06T06:35:09.268Z,736.00
2024-03-06T06:36:09.271Z,751.00
2024-03-06T06:37:09.606Z,774.00
2024-03-06T06:38:09.289Z,792.00
2024-03-06T06:39:11.102Z,815.00
2024-03-06T06:40:09.331Z,844.00
2024-03-06T06:41:09.703Z,888.00
2024-03-06T06:42:09.628Z,892.00
2024-03-06T06:43:09.653Z,906.00
2024-03-06T06:44:09.293Z,940.00
2024-03-06T06:45:09.273Z,968.00
2024-03-06T06:46:09.345Z,999.00
2024-03-06T06:47:09.310Z,1004.00
2024-03-06T06:48:09.614Z,1065.00
2024-03-06T06:49:09.404Z,1104.00
2024-03-06T06:50:09.316Z,1128.00
2024-03-06T06:51:09.283Z,1164.00
2024-03-06T06:52:09.617Z,1186.00
2024-03-06T06:53:09.398Z,1209.00
2024-03-06T06:54:09.630Z,1232.00
2024-03-06T06:55:09.285Z,1245.00
2024-03-06T06:56:09.386Z,1276.00
2024-03-06T06:57:09.291Z,1302.00
2024-03-06T06:58:09.301Z,1337.00
2024-03-06T06:59:09.656Z,1315.00
2024-03-06T07:00:09.286Z,1332.00
2024-03-06T07:01:09.325Z,1346.00
2024-03-06T07:02:12.591Z,1367.00
2024-03-06T07:03:12.492Z,1368.00
2024-03-06T07:04:09.744Z,1370.00
2024-03-06T07:05:09.408Z,1380.00
2024-03-06T07:06:09.318Z,1404.00
2024-03-06T07:07:12.535Z,1451.00
2024-03-06T07:08:09.326Z,1373.00
2024-03-06T07:09:09.618Z,1399.00
2024-03-06T07:10:09.320Z,1452.00
2024-03-06T07:11:09.727Z,1542.00
2024-03-06T07:12:09.323Z,1682.00
2024-03-06T07:13:09.671Z,1723.00
2024-03-06T07:14:09.653Z,1762.00
2024-03-06T07:15:09.320Z,1788.00
2024-03-06T07:16:09.619Z,1823.00
2024-03-06T07:17:09.329Z,1862.00
2024-03-06T07:18:09.372Z,1882.00
2024-03-06T07:19:12.511Z,1912.00
2024-03-06T07:20:09.318Z,1914.00
2024-03-06T07:21:09.640Z,1923.00
2024-03-06T07:22:09.317Z,1945.00
2024-03-06T07:23:09.661Z,1989.00
2024-03-06T07:24:09.345Z,2063.00
2024-03-06T07:25:09.362Z,2098.00
2024-03-06T07:26:09.645Z,2125.00
2024-03-06T07:27:09.333Z,2152.00
2024-03-06T07:28:09.359Z,2171.00
2024-03-06T07:29:09.339Z,2199.00
2024-03-06T07:30:11.245Z,2240.00
2024-03-06T07:31:09.739Z,2242.00
2024-03-06T07:32:10.280Z,2255.00
2024-03-06T07:33:09.373Z,2286.00
2024-03-06T07:34:09.684Z,2339.00
2024-03-06T07:35:09.359Z,2427.00
2024-03-06T07:36:09.640Z,2462.00
2024-03-06T07:37:09.359Z,2499.00
2024-03-06T07:38:09.366Z,2516.00
2024-03-06T07:39:09.336Z,2538.00
2024-03-06T07:40:09.581Z,2561.00
2024-03-06T07:41:09.399Z,2579.00
2024-03-06T07:42:09.361Z,2599.00
2024-03-06T07:43:09.358Z,2608.00
2024-03-06T07:44:09.392Z,2638.00
2024-03-06T07:45:09.352Z,2666.00
2024-03-06T07:46:09.631Z,2625.00
2024-03-06T07:47:09.402Z,2565.00
2024-03-06T07:48:09.440Z,2521.00
2024-03-06T07:49:10.464Z,2530.00
2024-03-06T07:50:09.515Z,2509.00
2024-03-06T07:51:11.670Z,2501.00
2024-03-06T07:52:09.363Z,2554.00
2024-03-06T07:53:09.375Z,2655.00
2024-03-06T07:54:09.365Z,2640.00
2024-03-06T07:55:09.371Z,2590.00
2024-03-06T07:56:09.677Z,2414.00
2024-03-06T07:57:09.375Z,2391.00
2024-03-06T07:58:09.371Z,2423.00
2024-03-06T07:59:09.428Z,2386.00
2024-03-06T08:00:09.383Z,2352.00
2024-03-06T08:01:09.646Z,2332.00
2024-03-06T08:02:10.154Z,2324.00
2024-03-06T08:03:09.389Z,2319.00
2024-03-06T08:04:09.375Z,2311.00
2024-03-06T08:05:09.418Z,2304.00
2024-03-06T08:06:09.688Z,2305.00
2024-03-06T08:07:09.385Z,2312.00
2024-03-06T08:08:09.681Z,2327.00
2024-03-06T08:09:09.414Z,2350.00
2024-03-06T08:10:09.518Z,2357.00
2024-03-06T08:11:09.452Z,2367.00
2024-03-06T08:12:09.395Z,2370.00
2024-03-06T08:13:09.409Z,2389.00
2024-03-06T08:14:09.495Z,2407.00
2024-03-06T08:15:09.410Z,2423.00
2024-03-06T08:16:09.427Z,2436.00
2024-03-06T08:17:09.441Z,2455.00
2024-03-06T08:18:09.447Z,2475.00
2024-03-06T08:19:09.408Z,2241.00
2024-03-06T08:20:09.429Z,2134.00
2024-03-06T08:21:12.950Z,2126.00
2024-03-06T08:22:09.411Z,2127.00
2024-03-06T08:23:09.528Z,2130.00
2024-03-06T08:24:09.653Z,2128.00
2024-03-06T08:25:09.462Z,2121.00
2024-03-06T08:26:09.435Z,2065.00
2024-03-06T08:27:10.665Z,2033.00
2024-03-06T08:28:09.447Z,2004.00
2024-03-06T08:29:09.459Z,1959.00
2024-03-06T08:30:09.438Z,1937.00
2024-03-06T08:31:09.668Z,1924.00
2024-03-06T08:32:09.508Z,1928.00
2024-03-06T08:33:09.834Z,1904.00
2024-03-06T08:34:09.728Z,1892.00
2024-03-06T08:35:09.665Z,1864.00
2024-03-06T08:36:10.151Z,1857.00
2024-03-06T08:37:09.774Z,1850.00
2024-03-06T08:38:10.173Z,1838.00
2024-03-06T08:39:09.798Z,1839.00
2024-03-06T08:40:09.830Z,1830.00
2024-03-06T08:41:09.961Z,1807.00
2024-03-06T08:42:10.159Z,1809.00
2024-03-06T08:43:09.953Z,1811.00
2024-03-06T08:44:09.998Z,1819.00
2024-03-06T08:45:10.048Z,1790.00
2024-03-06T08:46:10.044Z,1793.00
2024-03-06T08:47:10.174Z,1810.00
2024-03-06T08:48:10.152Z,1812.00
2024-03-06T08:49:11.412Z,1833.00
2024-03-06T08:50:10.770Z,1863.00
2024-03-06T08:51:10.260Z,1868.00
2024-03-06T08:52:10.290Z,1909.00
2024-03-06T08:53:11.702Z,1926.00
2024-03-06T08:54:13.443Z,1986.00
2024-03-06T08:55:13.977Z,1988.00
2024-03-06T08:56:10.379Z,1990.00
2024-03-06T08:57:10.330Z,2002.00
2024-03-06T08:58:10.328Z,2034.00
2024-03-06T08:59:10.730Z,2096.00
2024-03-06T09:00:10.330Z,2137.00
2024-03-06T09:01:10.751Z,2149.00
2024-03-06T09:02:10.349Z,2120.00
2024-03-06T09:03:10.350Z,2136.00
2024-03-06T09:04:10.344Z,2039.00
2024-03-06T09:05:10.386Z,2048.00
2024-03-06T09:06:10.681Z,1997.00
2024-03-06T09:07:10.338Z,1983.00
2024-03-06T09:08:10.786Z,1985.00
2024-03-06T09:09:10.430Z,1976.00
2024-03-06T09:10:10.340Z,1977.00
2024-03-06T09:11:10.440Z,2012.00
2024-03-06T09:12:10.804Z,2032.00
2024-03-06T09:13:10.675Z,2053.00
2024-03-06T09:14:10.418Z,2066.00
2024-03-06T09:15:10.507Z,2085.00
2024-03-06T09:16:17.785Z,2123.00
2024-03-06T09:17:10.754Z,2126.00
2024-03-06T09:18:10.506Z,2127.00
2024-03-06T09:19:10.700Z,2138.00
2024-03-06T09:20:10.638Z,2145.00
2024-03-06T09:21:10.469Z,2158.00
2024-03-06T09:22:10.410Z,2183.00
2024-03-06T09:23:10.405Z,2167.00
2024-03-06T09:24:10.376Z,2119.00
2024-03-06T09:25:10.542Z,2080.00
2024-03-06T09:26:10.439Z,2029.00
2024-03-06T09:27:10.708Z,1970.00
2024-03-06T09:28:10.387Z,1932.00
2024-03-06T09:29:10.748Z,1874.00
2024-03-06T09:30:10.682Z,1845.00
2024-03-06T09:31:10.365Z,1779.00
2024-03-06T09:32:10.707Z,1755.00
2024-03-06T09:33:10.443Z,1676.00
2024-03-06T09:34:10.688Z,1656.00
2024-03-06T09:35:10.450Z,1632.00
2024-03-06T09:36:10.481Z,1623.00
2024-03-06T09:37:10.678Z,1613.00
2024-03-06T09:38:10.462Z,1579.00
2024-03-06T09:39:10.380Z,1527.00
2024-03-06T09:40:10.386Z,1475.00
2024-03-06T09:41:10.476Z,1485.00
2024-03-06T09:42:10.681Z,1432.00
2024-03-06T09:43:11.202Z,1399.00
2024-03-06T09:44:10.708Z,1320.00
2024-03-06T09:45:10.499Z,1307.00
2024-03-06T09:46:10.526Z,1145.00
2024-03-06T09:47:10.543Z,1097.00
2024-03-06T09:48:10.774Z,1051.00
2024-03-06T09:49:10.683Z,992.00
2024-03-06T09:50:10.667Z,959.00
2024-03-06T09:51:10.705Z,972.00
2024-03-06T09:52:10.760Z,912.00
2024-03-06T09:53:10.788Z,887.00
2024-03-06T09:54:11.182Z,871.00
2024-03-06T09:55:10.894Z,882.00
2024-03-06T09:56:10.998Z,892.00
2024-03-06T09:57:10.960Z,893.00
2024-03-06T09:58:11.186Z,906.00
2024-03-06T09:59:10.986Z,922.00
2024-03-06T10:00:11.042Z,928.00
2024-03-06T10:01:11.242Z,893.00
2024-03-06T10:02:11.008Z,894.00
2024-03-06T10:03:11.000Z,911.00
2024-03-06T10:04:10.998Z,922.00
2024-03-06T10:05:11.257Z,923.00
2024-03-06T10:06:13.147Z,920.00
2024-03-06T10:07:11.197Z,937.00
2024-03-06T10:08:11.094Z,935.00
2024-03-06T10:09:11.035Z,936.00
2024-03-06T10:10:11.063Z,968.00
2024-03-06T10:11:11.122Z,970.00
2024-03-06T10:12:11.129Z,1012.00
2024-03-06T10:13:11.094Z,1037.00
2024-03-06T10:14:11.156Z,1082.00
2024-03-06T10:15:11.200Z,1110.00
2024-03-06T10:16:11.094Z,1164.00
2024-03-06T10:17:11.244Z,1202.00
2024-03-06T10:18:11.139Z,1239.00
2024-03-06T10:19:11.193Z,1285.00
2024-03-06T10:20:11.197Z,1334.00
2024-03-06T10:21:11.076Z,1379.00
2024-03-06T10:22:11.051Z,1427.00
2024-03-06T10:23:11.282Z,1478.00
2024-03-06T10:24:11.092Z,1511.00
2024-03-06T10:25:11.053Z,1559.00
2024-03-06T10:26:11.198Z,1593.00
2024-03-06T10:27:11.204Z,1654.00
2024-03-06T10:28:11.051Z,1693.00
2024-03-06T10:29:11.150Z,1732.00
2024-03-06T10:30:11.088Z,1775.00
2024-03-06T10:31:11.064Z,1833.00
2024-03-06T10:32:11.241Z,1889.00
2024-03-06T10:33:11.164Z,1683.00
2024-03-06T10:34:11.072Z,1649.00
2024-03-06T10:35:11.148Z,1501.00
2024-03-06T10:36:11.077Z,1321.00
2024-03-06T10:37:11.226Z,1190.00
2024-03-06T10:38:11.100Z,1160.00
2024-03-06T10:39:11.200Z,1119.00
2024-03-06T10:40:11.222Z,1285.00
2024-03-06T10:41:11.105Z,1278.00
2024-03-06T10:42:11.147Z,1265.00
2024-03-06T10:43:11.153Z,1229.00
2024-03-06T10:44:11.229Z,1062.00
2024-03-06T10:45:11.309Z,914.00
2024-03-06T10:46:11.316Z,840.00
2024-03-06T10:47:12.225Z,752.00
2024-03-06T10:48:11.506Z,683.00
2024-03-06T10:49:11.703Z,653.00
2024-03-06T10:50:11.598Z,629.00
2024-03-06T10:51:11.609Z,615.00
2024-03-06T10:52:11.707Z,601.00
2024-03-06T10:53:11.730Z,600.00
2024-03-06T10:54:11.739Z,601.00
2024-03-06T10:55:11.748Z,600.00
2024-03-06T10:56:11.927Z,600.00
2024-03-06T10:57:11.794Z,601.00
2024-03-06T10:58:11.821Z,600.00
2024-03-06T10:59:12.737Z,600.00
2024-03-06T11:00:11.887Z,600.00
2024-03-06T11:01:12.342Z,602.00
2024-03-06T11:02:12.098Z,600.00
2024-03-06T11:03:11.940Z,601.00
2024-03-06T11:04:12.227Z,601.00
2024-03-06T11:05:12.097Z,601.00
2024-03-06T11:06:12.010Z,602.00
2024-03-06T11:07:14.679Z,600.00
2024-03-06T11:08:12.052Z,600.00
2024-03-06T11:09:12.035Z,598.00
2024-03-06T11:10:12.044Z,592.00
2024-03-06T11:11:12.274Z,585.00
2024-03-06T11:12:12.107Z,583.00
2024-03-06T11:13:12.036Z,605.00
2024-03-06T11:14:12.055Z,600.00
2024-03-06T11:15:12.053Z,600.00
2024-03-06T11:16:12.037Z,601.00
2024-03-06T11:17:12.316Z,602.00
2024-03-06T11:18:12.168Z,603.00
2024-03-06T11:19:12.057Z,600.00
2024-03-06T11:20:12.075Z,601.00
2024-03-06T11:21:12.044Z,602.00
2024-03-06T11:22:12.054Z,606.00
2024-03-06T11:23:12.134Z,601.00
2024-03-06T11:24:12.057Z,607.00
2024-03-06T11:25:12.050Z,606.00
2024-03-06T11:26:12.095Z,609.00
2024-03-06T11:27:12.214Z,604.00
2024-03-06T11:28:12.169Z,608.00
2024-03-06T11:29:12.241Z,607.00
2024-03-06T11:30:12.442Z,609.00
2024-03-06T11:31:12.328Z,607.00
2024-03-06T11:32:12.791Z,607.00
2024-03-06T11:33:12.614Z,607.00
2024-03-06T11:34:12.552Z,608.00
2024-03-06T11:35:12.503Z,605.00
2024-03-06T11:36:12.555Z,608.00
2024-03-06T11:37:12.719Z,611.00
2024-03-06T11:38:12.695Z,610.00
2024-03-06T11:39:13.218Z,608.00
2024-03-06T11:40:12.793Z,614.00
2024-03-06T11:41:12.872Z,611.00
2024-03-06T11:42:12.905Z,614.00
2024-03-06T11:43:12.954Z,611.00
2024-03-06T11:44:13.087Z,617.00
2024-03-06T11:45:13.088Z,618.00
2024-03-06T11:46:13.192Z,618.00
2024-03-06T11:47:13.963Z,615.00
2024-03-06T11:48:13.383Z,616.00
2024-03-06T11:49:13.419Z,618.00
2024-03-06T11:50:13.512Z,617.00
2024-03-06T11:51:13.517Z,620.00
2024-03-06T11:52:13.590Z,620.00
2024-03-06T11:53:13.698Z,619.00
2024-03-06T11:54:13.740Z,616.00
2024-03-06T11:55:13.785Z,618.00
2024-03-06T11:56:13.868Z,616.00
2024-03-06T11:57:14.223Z,619.00
2024-03-06T11:58:13.990Z,626.00
2024-03-06T11:59:14.337Z,628.00
2024-03-06T12:00:14.068Z,639.00
2024-03-06T12:01:14.133Z,644.00
2024-03-06T12:02:14.319Z,652.00
2024-03-06T12:03:14.248Z,655.00
2024-03-06T12:04:14.306Z,663.00
2024-03-06T12:05:14.823Z,662.00
2024-03-06T12:06:14.364Z,665.00
2024-03-06T12:07:14.399Z,662.00
2024-03-06T12:08:14.423Z,660.00
2024-03-06T12:09:14.487Z,657.00
2024-03-06T12:10:14.772Z,660.00
2024-03-06T12:11:14.797Z,660.00
2024-03-06T12:12:14.774Z,661.00
2024-03-06T12:13:14.680Z,657.00
2024-03-06T12:14:14.784Z,654.00
2024-03-06T12:15:14.777Z,656.00
2024-03-06T12:16:14.795Z,657.00
2024-03-06T12:17:15.285Z,656.00
2024-03-06T12:18:14.985Z,653.00
2024-03-06T12:19:15.235Z,650.00
2024-03-06T12:20:14.884Z,653.00
2024-03-06T12:21:14.942Z,651.00
2024-03-06T12:22:15.237Z,648.00
2024-03-06T12:23:14.915Z,649.00
2024-03-06T12:24:14.898Z,648.00
2024-03-06T12:25:15.001Z,647.00
2024-03-06T12:26:15.268Z,650.00
2024-03-06T12:27:15.144Z,648.00
2024-03-06T12:28:14.993Z,642.00
2024-03-06T12:29:15.084Z,643.00
2024-03-06T12:30:15.098Z,639.00
2024-03-06T12:31:15.158Z,640.00
2024-03-06T12:32:15.287Z,639.00
2024-03-06T12:33:15.373Z,637.00
2024-03-06T12:34:16.348Z,639.00
2024-03-06T12:35:15.449Z,639.00
2024-03-06T12:36:15.504Z,636.00
2024-03-06T12:37:15.787Z,639.00
2024-03-06T12:38:15.670Z,641.00
2024-03-06T12:39:15.707Z,641.00
2024-03-06T12:40:15.776Z,639.00
2024-03-06T12:41:15.902Z,641.00
2024-03-06T12:42:16.242Z,640.00
2024-03-06T12:43:16.008Z,643.00
2024-03-06T12:44:16.090Z,639.00
2024-03-06T12:45:16.106Z,645.00
2024-03-06T12:46:16.163Z,638.00
2024-03-06T12:47:16.265Z,643.00
2024-03-06T12:48:16.298Z,646.00
2024-03-06T12:49:16.364Z,648.00
2024-03-06T12:50:16.414Z,649.00
2024-03-06T12:51:16.454Z,643.00
2024-03-06T12:52:16.763Z,645.00
2024-03-06T12:53:16.758Z,648.00
2024-03-06T12:54:16.623Z,645.00
2024-03-06T12:55:16.691Z,648.00
2024-03-06T12:56:16.753Z,648.00
2024-03-06T12:57:17.252Z,650.00
2024-03-06T12:58:16.833Z,645.00
2024-03-06T12:59:16.903Z,652.00
2024-03-06T13:00:17.300Z,651.00
2024-03-06T13:01:17.021Z,651.00
2024-03-06T13:02:17.147Z,651.00
2024-03-06T13:03:17.106Z,651.00
2024-03-06T13:04:17.155Z,648.00
2024-03-06T13:05:17.292Z,648.00
2024-03-06T13:06:17.253Z,649.00
2024-03-06T13:07:17.753Z,651.00
2024-03-06T13:08:17.465Z,651.00
2024-03-06T13:09:17.548Z,650.00
2024-03-06T13:10:17.478Z,653.00
2024-03-06T13:11:17.559Z,649.00
2024-03-06T13:12:17.789Z,655.00
2024-03-06T13:13:17.591Z,658.00
2024-03-06T13:14:17.722Z,655.00
2024-03-06T13:15:17.687Z,652.00
2024-03-06T13:16:17.713Z,655.00
2024-03-06T13:17:17.848Z,656.00
2024-03-06T13:18:17.936Z,655.00
2024-03-06T13:19:17.857Z,655.00
2024-03-06T13:20:18.325Z,657.00
2024-03-06T13:21:17.946Z,655.00
2024-03-06T13:22:18.264Z,656.00
2024-03-06T13:23:18.075Z,657.00
2024-03-06T13:24:18.083Z,658.00
2024-03-06T13:25:18.203Z,658.00
2024-03-06T13:26:18.193Z,654.00
2024-03-06T13:27:18.217Z,658.00
2024-03-06T13:28:18.256Z,656.00
2024-03-06T13:29:18.322Z,658.00
2024-03-06T13:30:18.339Z,659.00
2024-03-06T13:31:18.385Z,660.00
2024-03-06T13:32:18.763Z,659.00
2024-03-06T13:33:18.551Z,662.00
2024-03-06T13:34:18.514Z,659.00
2024-03-06T13:35:18.564Z,659.00
2024-03-06T13:36:18.603Z,661.00
2024-03-06T13:37:18.764Z,660.00
2024-03-06T13:38:18.702Z,661.00
2024-03-06T13:39:18.715Z,660.00
2024-03-06T13:40:18.780Z,660.00
2024-03-06T13:41:18.962Z,663.00
2024-03-06T13:42:18.839Z,662.00
2024-03-06T13:43:19.269Z,661.00
2024-03-06T13:44:19.002Z,665.00
2024-03-06T13:45:18.972Z,660.00
2024-03-06T13:46:19.028Z,663.00
2024-03-06T13:47:19.096Z,666.00
2024-03-06T13:48:19.306Z,664.00
2024-03-06T13:49:19.137Z,662.00
2024-03-06T13:50:19.223Z,665.00
2024-03-06T13:51:19.230Z,662.00
2024-03-06T13:52:19.270Z,664.00
2024-03-06T13:53:19.798Z,666.00
2024-03-06T13:54:19.352Z,664.00
2024-03-06T13:55:19.387Z,661.00
2024-03-06T13:56:19.471Z,664.00
2024-03-06T13:57:19.835Z,663.00
2024-03-06T13:58:19.775Z,663.00
2024-03-06T13:59:19.540Z,665.00
2024-03-06T14:00:19.863Z,666.00
2024-03-06T14:01:19.606Z,665.00
2024-03-06T14:02:19.889Z,665.00
2024-03-06T14:03:19.676Z,665.00
2024-03-06T14:04:19.703Z,664.00
2024-03-06T14:05:19.763Z,669.00
2024-03-06T14:06:19.772Z,665.00
2024-03-06T14:07:19.806Z,663.00
2024-03-06T14:08:19.884Z,669.00
2024-03-06T14:09:20.800Z,665.00